Mary Alice — WCX9570 — position and weather

sailwx.info

Track history (hours):
 
Tides and Currents Weather Stations Pressure Air Temp Water Temp Dewpoint Dewpoint Depression Visibility Wind Speed Wind Dir Waves Ship Positions

Mary Alice

Owner: Donjon Marine Co., Inc., HILLSIDE, NJ. More information available from US FCC via Universal Licensing System and Coast Guard Vessel Documentation Center.

Last reported at 2015-Jan-26 18:33 UTC. Time now 2015-Jan-26 18:36 UTC.
Position N 40°45' W 073°57'.

Length 21 m; draft 4.8 m.

Type: Towing. MMSI: 366744020.

Date/timePositionNaut miles runAvg speedWind from/ knotsBaromVisibWave heightAir tempDewpointWater temp
2015-Jan-26 18:33N 40°45' W 073°57'0 0.0
2015-Jan-26 17:33N 40°45' W 073°57'0 0.0
2015-Jan-26 16:33N 40°45' W 073°57'0 0.0
2015-Jan-26 15:33N 40°45' W 073°57'0 0.0
2015-Jan-26 14:33N 40°45' W 073°57'0 0.0
2015-Jan-26 13:33N 40°45' W 073°57'0 0.0
2015-Jan-26 12:33N 40°45' W 073°57'0 0.0
2015-Jan-26 11:33N 40°45' W 073°57'0 0.0
2015-Jan-26 10:33N 40°45' W 073°57'0 0.0
2015-Jan-26 09:33N 40°45' W 073°57'0 0.0
2015-Jan-26 08:33N 40°45' W 073°57'3 2.7
2015-Jan-26 07:33N 40°43' W 073°59'7 7.3
2015-Jan-26 06:33N 40°39' W 074°07'4 3.6
2015-Jan-26 05:33N 40°42' W 074°09'0 0.0
2015-Jan-26 02:06N 40°42' W 074°09'0 0.0
2015-Jan-25 17:25N 40°42' W 074°09'4 4.8
2015-Jan-25 16:33N 40°39' W 074°05'2 1.9
2015-Jan-25 15:33N 40°41' W 074°05'0 0.0
2015-Jan-25 14:33N 40°41' W 074°05'0 0.0
2015-Jan-25 13:31N 40°41' W 074°05'0 0.0
2015-Jan-25 12:33N 40°41' W 074°05'0 0.0
2015-Jan-25 11:33N 40°41' W 074°05'0 0.1
2015-Jan-25 10:33N 40°41' W 074°04'2 2.5
2015-Jan-25 09:33N 40°42' W 074°02'8 8.1
2015-Jan-25 08:33N 40°50' W 073°58'13 5.6
2015-Jan-25 06:12N 41°03' W 073°53'13 0.3
2015-Jan-23 02:15N 40°50' W 073°58'5 7.2
2015-Jan-23 01:33N 40°45' W 074°01'5 5.1
2015-Jan-23 00:33N 40°41' W 074°04'1 1.5
2015-Jan-22 23:33N 40°40' W 074°04'4 4.0
2015-Jan-22 22:33N 40°42' W 074°09'0 0.1
2015-Jan-22 16:17N 40°42' W 074°09'2 3.3
2015-Jan-22 15:33N 40°40' W 074°09'0 0.0
2015-Jan-22 14:33N 40°40' W 074°09'1 1.2
2015-Jan-22 13:33N 40°41' W 074°09'1 0.8
2015-Jan-22 12:16N 40°42' W 074°09'2 3.3
2015-Jan-22 11:33N 40°40' W 074°09'2 1.8
2015-Jan-22 10:26N 40°41' W 074°08'0 0.0
2015-Jan-22 09:33N 40°41' W 074°08'0 0.0
2015-Jan-22 08:27N 40°41' W 074°08'1 0.7
2015-Jan-22 07:32N 40°41' W 074°08'3 3.3
2015-Jan-22 06:33N 40°39' W 074°11'2 2.4
2015-Jan-22 05:32N 40°40' W 074°08'3 3.0
2015-Jan-22 04:31N 40°38' W 074°12'2 1.9
2015-Jan-22 03:33N 40°39' W 074°09'3 2.7
2015-Jan-22 02:23N 40°42' W 074°09'1 1.0
2015-Jan-22 01:31N 40°41' W 074°08'0 0.0
2015-Jan-22 00:29N 40°41' W 074°08'0 0.0
2015-Jan-21 23:30N 40°41' W 074°08'2 2.8
2015-Jan-21 22:50N 40°40' W 074°09'0 0.1
2015-Jan-21 22:46N 40°40' W 074°09'0 0.3
2015-Jan-21 22:33N 40°40' W 074°09'0 0.0
2015-Jan-21 21:33N 40°40' W 074°09'2 2.2
2015-Jan-21 20:33N 40°42' W 074°09'1 1.0
2015-Jan-21 19:33N 40°41' W 074°08'1 0.9
2015-Jan-21 18:33N 40°42' W 074°09'2 2.2
2015-Jan-21 17:33N 40°40' W 074°09'0 0.0
2015-Jan-21 16:32N 40°40' W 074°09'0 0.0
2015-Jan-21 15:33N 40°40' W 074°09'0 0.1
2015-Jan-21 14:32N 40°40' W 074°09'0 0.5
2015-Jan-21 13:33N 40°40' W 074°08'0 0.5
2015-Jan-21 12:33N 40°40' W 074°09'0 0.1
2015-Jan-21 11:33N 40°40' W 074°09'2 1.6
2015-Jan-21 10:27N 40°41' W 074°08'0 0.0
2015-Jan-21 09:33N 40°41' W 074°08'0 0.0
2015-Jan-21 08:33N 40°41' W 074°08'0 0.0
2015-Jan-21 07:31N 40°41' W 074°08'0 0.1
2015-Jan-21 06:32N 40°41' W 074°08'0 0.3
2015-Jan-21 05:33N 40°41' W 074°08'3 2.6
2015-Jan-21 04:33N 40°41' W 074°05'4 3.8
2015-Jan-21 03:33N 40°39' W 074°08'3 2.6
2015-Jan-21 02:33N 40°41' W 074°08'1 0.5
2015-Jan-21 00:22N 40°42' W 074°09'1 0.9
2015-Jan-20 23:31N 40°41' W 074°08'2 1.8
2015-Jan-20 22:30N 40°40' W 074°09'2 2.3
2015-Jan-20 21:33N 40°42' W 074°09'2 1.9
2015-Jan-20 20:22N 40°40' W 074°09'1 0.7
2015-Jan-20 19:32N 40°40' W 074°08'1 0.5
2015-Jan-20 18:27N 40°40' W 074°09'0 0.0
2015-Jan-20 17:31N 40°40' W 074°09'0 0.0
2015-Jan-20 16:33N 40°40' W 074°09'2 2.2
2015-Jan-20 15:33N 40°42' W 074°09'0 0.0
2015-Jan-20 14:32N 40°42' W 074°09'0 0.0
2015-Jan-20 13:32N 40°42' W 074°09'2 1.8
2015-Jan-20 12:33N 40°40' W 074°08'0 0.4
2015-Jan-20 11:33N 40°40' W 074°09'2 1.6
2015-Jan-20 10:30N 40°41' W 074°08'0 0.0
2015-Jan-20 09:33N 40°41' W 074°08'0 0.0
2015-Jan-20 08:33N 40°41' W 074°08'0 0.0
2015-Jan-20 07:33N 40°41' W 074°08'0 0.0
2015-Jan-20 06:33N 40°41' W 074°08'0 0.0
2015-Jan-20 05:33N 40°41' W 074°08'0 0.0
2015-Jan-20 04:33N 40°41' W 074°08'0 0.0
2015-Jan-20 03:31N 40°41' W 074°08'0 0.2
2015-Jan-20 02:32N 40°41' W 074°08'1 0.6
2015-Jan-20 01:33N 40°41' W 074°09'1 1.1
2015-Jan-20 00:33N 40°40' W 074°09'0 0.0
2015-Jan-19 23:33N 40°40' W 074°09'0 0.0
2015-Jan-19 22:33N 40°40' W 074°09'0 0.0
2015-Jan-19 21:33N 40°40' W 074°09'0 0.0
2015-Jan-19 20:25N 40°40' W 074°09'0 0.3
2015-Jan-19 19:19N 40°40' W 074°08'0 0.0
2015-Jan-19 18:33N 40°40' W 074°08'0 0.0
2015-Jan-19 17:33N 40°40' W 074°08'2 2.1
2015-Jan-19 16:33N 40°42' W 074°09'1 1.5
2015-Jan-19 15:33N 40°40' W 074°08'1 0.9
2015-Jan-19 14:33N 40°40' W 074°09'1 0.8
2015-Jan-19 13:33N 40°40' W 074°08'1 0.8
2015-Jan-19 12:31N 40°40' W 074°09'1 1.0
2015-Jan-19 11:31N 40°40' W 074°08'1 1.0
2015-Jan-19 10:33N 40°41' W 074°08'0 0.1
2015-Jan-19 09:14N 40°41' W 074°08'0 0.0
2015-Jan-19 08:26N 40°41' W 074°08'0 0.0
2015-Jan-19 07:33N 40°41' W 074°08'0 0.0
2015-Jan-19 06:33N 40°41' W 074°08'0 0.0
2015-Jan-19 05:33N 40°41' W 074°08'0 0.0
2015-Jan-19 04:06N 40°41' W 074°08'0 0.0
2015-Jan-19 03:30N 40°41' W 074°08'0 0.0
2015-Jan-19 02:22N 40°41' W 074°08'0 0.0
2015-Jan-19 01:33N 40°41' W 074°08'0 0.0
2015-Jan-19 00:33N 40°41' W 074°08'0 0.0
2015-Jan-18 23:33N 40°41' W 074°08'0 0.0
2015-Jan-18 22:29N 40°41' W 074°08'0 0.0
2015-Jan-18 21:33N 40°41' W 074°08'0 0.0
2015-Jan-18 20:24N 40°41' W 074°08'0 0.0
2015-Jan-18 18:33N 40°41' W 074°08'0 0.0
2015-Jan-18 17:24N 40°41' W 074°08'0 0.0
2015-Jan-18 16:32N 40°41' W 074°08'0 0.0
2015-Jan-18 15:31N 40°41' W 074°08'0 0.0
2015-Jan-18 14:32N 40°41' W 074°08'0 0.0
2015-Jan-18 13:33N 40°41' W 074°08'0 0.0
2015-Jan-18 12:11N 40°41' W 074°08'0 0.0
2015-Jan-18 11:32N 40°41' W 074°08'0 0.0
2015-Jan-18 10:25N 40°41' W 074°08'0 0.0
2015-Jan-18 09:33N 40°41' W 074°08'0 0.0
2015-Jan-18 08:31N 40°41' W 074°08'0 0.0
2015-Jan-18 07:33N 40°41' W 074°08'0 0.0
2015-Jan-18 06:33N 40°41' W 074°08'0 0.0
2015-Jan-18 05:33N 40°41' W 074°08'0 0.0
2015-Jan-18 03:23N 40°41' W 074°08'0 0.0
2015-Jan-18 02:23N 40°41' W 074°08'0 0.2
2015-Jan-18 01:33N 40°41' W 074°08'1 0.7
2015-Jan-18 00:30N 40°41' W 074°09'3 3.7
2015-Jan-17 23:33N 40°38' W 074°12'0 0.0
2015-Jan-17 22:31N 40°38' W 074°12'0 0.0
2015-Jan-17 21:28N 40°38' W 074°12'0 0.1
2015-Jan-17 19:32N 40°38' W 074°12'0 0.0
2015-Jan-17 18:33N 40°38' W 074°12'3 3.5
2015-Jan-17 17:33N 40°41' W 074°08'1 0.9
2015-Jan-17 16:28N 40°41' W 074°08'0 0.0
2015-Jan-17 15:33N 40°41' W 074°08'0 0.4
2015-Jan-17 14:33N 40°41' W 074°08'1 0.5
2015-Jan-17 12:14N 40°42' W 074°09'0 0.0
2015-Jan-17 05:10N 40°42' W 074°09'0 0.0
2015-Jan-17 01:14N 40°42' W 074°09'  
Track history (hours):
 
Tides and Currents Weather Stations Pressure Air Temp Water Temp Dewpoint Dewpoint Depression Visibility Wind Speed Wind Dir Waves Ship Positions

Mary Alice

Owner: Donjon Marine Co., Inc., HILLSIDE, NJ. More information available from US FCC via Universal Licensing System and Coast Guard Vessel Documentation Center.

Last reported at 2015-Jan-26 18:33 UTC. Time now 2015-Jan-26 18:36 UTC.
Position N 40°45' W 073°57'.

Length 21 m; draft 4.8 m.

Type: Towing. MMSI: 366744020.

Date/timePositionNaut miles runAvg speedWind from/ knotsBaromVisibWave heightAir tempDewpointWater temp
2015-Jan-26 18:33N 40°45' W 073°57'0 0.0
2015-Jan-26 17:33N 40°45' W 073°57'0 0.0
2015-Jan-26 16:33N 40°45' W 073°57'0 0.0
2015-Jan-26 15:33N 40°45' W 073°57'0 0.0
2015-Jan-26 14:33N 40°45' W 073°57'0 0.0
2015-Jan-26 13:33N 40°45' W 073°57'0 0.0
2015-Jan-26 12:33N 40°45' W 073°57'0 0.0
2015-Jan-26 11:33N 40°45' W 073°57'0 0.0
2015-Jan-26 10:33N 40°45' W 073°57'0 0.0
2015-Jan-26 09:33N 40°45' W 073°57'0 0.0
2015-Jan-26 08:33N 40°45' W 073°57'3 2.7
2015-Jan-26 07:33N 40°43' W 073°59'7 7.3
2015-Jan-26 06:33N 40°39' W 074°07'4 3.6
2015-Jan-26 05:33N 40°42' W 074°09'0 0.0
2015-Jan-26 02:06N 40°42' W 074°09'0 0.0
2015-Jan-25 17:25N 40°42' W 074°09'4 4.8
2015-Jan-25 16:33N 40°39' W 074°05'2 1.9
2015-Jan-25 15:33N 40°41' W 074°05'0 0.0
2015-Jan-25 14:33N 40°41' W 074°05'0 0.0
2015-Jan-25 13:31N 40°41' W 074°05'0 0.0
2015-Jan-25 12:33N 40°41' W 074°05'0 0.0
2015-Jan-25 11:33N 40°41' W 074°05'0 0.1
2015-Jan-25 10:33N 40°41' W 074°04'2 2.5
2015-Jan-25 09:33N 40°42' W 074°02'8 8.1
2015-Jan-25 08:33N 40°50' W 073°58'13 5.6
2015-Jan-25 06:12N 41°03' W 073°53'13 0.3
2015-Jan-23 02:15N 40°50' W 073°58'5 7.2
2015-Jan-23 01:33N 40°45' W 074°01'5 5.1
2015-Jan-23 00:33N 40°41' W 074°04'1 1.5
2015-Jan-22 23:33N 40°40' W 074°04'4 4.0
2015-Jan-22 22:33N 40°42' W 074°09'0 0.1
2015-Jan-22 16:17N 40°42' W 074°09'2 3.3
2015-Jan-22 15:33N 40°40' W 074°09'0 0.0
2015-Jan-22 14:33N 40°40' W 074°09'1 1.2
2015-Jan-22 13:33N 40°41' W 074°09'1 0.8
2015-Jan-22 12:16N 40°42' W 074°09'2 3.3
2015-Jan-22 11:33N 40°40' W 074°09'2 1.8
2015-Jan-22 10:26N 40°41' W 074°08'0 0.0
2015-Jan-22 09:33N 40°41' W 074°08'0 0.0
2015-Jan-22 08:27N 40°41' W 074°08'1 0.7
2015-Jan-22 07:32N 40°41' W 074°08'3 3.3
2015-Jan-22 06:33N 40°39' W 074°11'2 2.4
2015-Jan-22 05:32N 40°40' W 074°08'3 3.0
2015-Jan-22 04:31N 40°38' W 074°12'2 1.9
2015-Jan-22 03:33N 40°39' W 074°09'3 2.7
2015-Jan-22 02:23N 40°42' W 074°09'1 1.0
2015-Jan-22 01:31N 40°41' W 074°08'0 0.0
2015-Jan-22 00:29N 40°41' W 074°08'0 0.0
2015-Jan-21 23:30N 40°41' W 074°08'2 2.8
2015-Jan-21 22:50N 40°40' W 074°09'0 0.1
2015-Jan-21 22:46N 40°40' W 074°09'0 0.3
2015-Jan-21 22:33N 40°40' W 074°09'0 0.0
2015-Jan-21 21:33N 40°40' W 074°09'2 2.2
2015-Jan-21 20:33N 40°42' W 074°09'1 1.0
2015-Jan-21 19:33N 40°41' W 074°08'1 0.9
2015-Jan-21 18:33N 40°42' W 074°09'2 2.2
2015-Jan-21 17:33N 40°40' W 074°09'0 0.0
2015-Jan-21 16:32N 40°40' W 074°09'0 0.0
2015-Jan-21 15:33N 40°40' W 074°09'0 0.1
2015-Jan-21 14:32N 40°40' W 074°09'0 0.5
2015-Jan-21 13:33N 40°40' W 074°08'0 0.5
2015-Jan-21 12:33N 40°40' W 074°09'0 0.1
2015-Jan-21 11:33N 40°40' W 074°09'2 1.6
2015-Jan-21 10:27N 40°41' W 074°08'0 0.0
2015-Jan-21 09:33N 40°41' W 074°08'0 0.0
2015-Jan-21 08:33N 40°41' W 074°08'0 0.0
2015-Jan-21 07:31N 40°41' W 074°08'0 0.1
2015-Jan-21 06:32N 40°41' W 074°08'0 0.3
2015-Jan-21 05:33N 40°41' W 074°08'3 2.6
2015-Jan-21 04:33N 40°41' W 074°05'4 3.8
2015-Jan-21 03:33N 40°39' W 074°08'3 2.6
2015-Jan-21 02:33N 40°41' W 074°08'1 0.5
2015-Jan-21 00:22N 40°42' W 074°09'1 0.9
2015-Jan-20 23:31N 40°41' W 074°08'2 1.8
2015-Jan-20 22:30N 40°40' W 074°09'2 2.3
2015-Jan-20 21:33N 40°42' W 074°09'2 1.9
2015-Jan-20 20:22N 40°40' W 074°09'1 0.7
2015-Jan-20 19:32N 40°40' W 074°08'1 0.5
2015-Jan-20 18:27N 40°40' W 074°09'0 0.0
2015-Jan-20 17:31N 40°40' W 074°09'0 0.0
2015-Jan-20 16:33N 40°40' W 074°09'2 2.2
2015-Jan-20 15:33N 40°42' W 074°09'0 0.0
2015-Jan-20 14:32N 40°42' W 074°09'0 0.0
2015-Jan-20 13:32N 40°42' W 074°09'2 1.8
2015-Jan-20 12:33N 40°40' W 074°08'0 0.4
2015-Jan-20 11:33N 40°40' W 074°09'2 1.6
2015-Jan-20 10:30N 40°41' W 074°08'0 0.0
2015-Jan-20 09:33N 40°41' W 074°08'0 0.0
2015-Jan-20 08:33N 40°41' W 074°08'0 0.0
2015-Jan-20 07:33N 40°41' W 074°08'0 0.0
2015-Jan-20 06:33N 40°41' W 074°08'0 0.0
2015-Jan-20 05:33N 40°41' W 074°08'0 0.0
2015-Jan-20 04:33N 40°41' W 074°08'0 0.0
2015-Jan-20 03:31N 40°41' W 074°08'0 0.2
2015-Jan-20 02:32N 40°41' W 074°08'1 0.6
2015-Jan-20 01:33N 40°41' W 074°09'1 1.1
2015-Jan-20 00:33N 40°40' W 074°09'0 0.0
2015-Jan-19 23:33N 40°40' W 074°09'0 0.0
2015-Jan-19 22:33N 40°40' W 074°09'0 0.0
2015-Jan-19 21:33N 40°40' W 074°09'0 0.0
2015-Jan-19 20:25N 40°40' W 074°09'0 0.3
2015-Jan-19 19:19N 40°40' W 074°08'0 0.0
2015-Jan-19 18:33N 40°40' W 074°08'0 0.0
2015-Jan-19 17:33N 40°40' W 074°08'2 2.1
2015-Jan-19 16:33N 40°42' W 074°09'1 1.5
2015-Jan-19 15:33N 40°40' W 074°08'1 0.9
2015-Jan-19 14:33N 40°40' W 074°09'1 0.8
2015-Jan-19 13:33N 40°40' W 074°08'1 0.8
2015-Jan-19 12:31N 40°40' W 074°09'1 1.0
2015-Jan-19 11:31N 40°40' W 074°08'1 1.0
2015-Jan-19 10:33N 40°41' W 074°08'0 0.1
2015-Jan-19 09:14N 40°41' W 074°08'0 0.0
2015-Jan-19 08:26N 40°41' W 074°08'0 0.0
2015-Jan-19 07:33N 40°41' W 074°08'0 0.0
2015-Jan-19 06:33N 40°41' W 074°08'0 0.0
2015-Jan-19 05:33N 40°41' W 074°08'0 0.0
2015-Jan-19 04:06N 40°41' W 074°08'0 0.0
2015-Jan-19 03:30N 40°41' W 074°08'0 0.0
2015-Jan-19 02:22N 40°41' W 074°08'0 0.0
2015-Jan-19 01:33N 40°41' W 074°08'0 0.0
2015-Jan-19 00:33N 40°41' W 074°08'0 0.0
2015-Jan-18 23:33N 40°41' W 074°08'0 0.0
2015-Jan-18 22:29N 40°41' W 074°08'0 0.0
2015-Jan-18 21:33N 40°41' W 074°08'0 0.0
2015-Jan-18 20:24N 40°41' W 074°08'0 0.0
2015-Jan-18 18:33N 40°41' W 074°08'0 0.0
2015-Jan-18 17:24N 40°41' W 074°08'0 0.0
2015-Jan-18 16:32N 40°41' W 074°08'0 0.0
2015-Jan-18 15:31N 40°41' W 074°08'0 0.0
2015-Jan-18 14:32N 40°41' W 074°08'0 0.0
2015-Jan-18 13:33N 40°41' W 074°08'0 0.0
2015-Jan-18 12:11N 40°41' W 074°08'0 0.0
2015-Jan-18 11:32N 40°41' W 074°08'0 0.0
2015-Jan-18 10:25N 40°41' W 074°08'0 0.0
2015-Jan-18 09:33N 40°41' W 074°08'0 0.0
2015-Jan-18 08:31N 40°41' W 074°08'0 0.0
2015-Jan-18 07:33N 40°41' W 074°08'0 0.0
2015-Jan-18 06:33N 40°41' W 074°08'0 0.0
2015-Jan-18 05:33N 40°41' W 074°08'0 0.0
2015-Jan-18 03:23N 40°41' W 074°08'0 0.0
2015-Jan-18 02:23N 40°41' W 074°08'0 0.2
2015-Jan-18 01:33N 40°41' W 074°08'1 0.7
2015-Jan-18 00:30N 40°41' W 074°09'3 3.7
2015-Jan-17 23:33N 40°38' W 074°12'0 0.0
2015-Jan-17 22:31N 40°38' W 074°12'0 0.0
2015-Jan-17 21:28N 40°38' W 074°12'0 0.1
2015-Jan-17 19:32N 40°38' W 074°12'0 0.0
2015-Jan-17 18:33N 40°38' W 074°12'3 3.5
2015-Jan-17 17:33N 40°41' W 074°08'1 0.9
2015-Jan-17 16:28N 40°41' W 074°08'0 0.0
2015-Jan-17 15:33N 40°41' W 074°08'0 0.4
2015-Jan-17 14:33N 40°41' W 074°08'1 0.5
2015-Jan-17 12:14N 40°42' W 074°09'0 0.0
2015-Jan-17 05:10N 40°42' W 074°09'0 0.0
2015-Jan-17 01:14N 40°42' W 074°09'  

Dump ship's entire track history